Time;durP1;ratioP1;P1;durP2;ratioP2;P2;SDS_P1;SDS_P2;PMS_P1;PMS_P2;Temp;Humidity;BMP_temperature;BMP_pressure;BME280_temperature;BME280_humidity;BME280_pressure;Samples;Min_cycle;Max_cycle;Signal;HPM_P1;HPM_P2
2022/10/19 00:01:08;;;;;;;38.87;3.47;;;11.70;89.70;;;;;;5018323;28;20212;-87
2022/10/19 00:03:34;;;;;;;7.30;2.60;;;11.60;89.70;;;;;;5018017;28;20658;-87
2022/10/19 00:06:10;;;;;;;13.77;3.23;;;11.60;89.70;;;;;;5036035;28;20184;-86
2022/10/19 00:08:35;;;;;;;7.93;2.50;;;11.60;89.70;;;;;;5035826;28;20201;-87
2022/10/19 00:11:01;;;;;;;7.57;2.53;;;11.60;89.60;;;;;;5017943;28;20197;-87
2022/10/19 00:13:26;;;;;;;6.13;2.40;;;11.60;89.50;;;;;;5017999;28;20547;-87
2022/10/19 00:15:52;;;;;;;15.13;3.00;;;11.60;89.50;;;;;;5035556;28;20230;-87
2022/10/19 00:18:17;;;;;;;20.80;2.93;;;11.60;89.40;;;;;;5017780;28;20177;-87
2022/10/19 00:20:43;;;;;;;15.23;2.57;;;11.60;89.50;;;;;;5017581;28;20204;-86
2022/10/19 00:23:08;;;;;;;16.40;2.63;;;11.70;89.60;;;;;;5017722;28;20181;-87
2022/10/19 00:25:35;;;;;;;9.20;2.70;;;11.70;89.60;;;;;;5017540;28;20642;-87
2022/10/19 00:28:02;;;;;;;12.97;2.63;;;11.70;89.70;;;;;;5017700;28;20181;-87
2022/10/19 00:30:27;;;;;;;16.07;3.33;;;11.70;89.70;;;;;;5017457;28;20180;-86
2022/10/19 00:32:53;;;;;;;12.83;2.77;;;11.70;89.80;;;;;;5017479;28;20247;-87
2022/10/19 00:35:18;;;;;;;11.30;3.50;;;11.60;89.90;;;;;;5035439;28;20259;-87
2022/10/19 00:37:44;;;;;;;13.10;3.57;;;11.60;90.20;;;;;;5017398;28;20215;-87
2022/10/19 00:40:09;;;;;;;7.97;2.80;;;11.60;90.40;;;;;;5017416;28;20284;-87
2022/10/19 00:42:35;;;;;;;13.30;2.93;;;11.60;90.50;;;;;;5035224;28;20244;-87
2022/10/19 00:45:11;;;;;;;6.97;2.90;;;11.60;90.40;;;;;;5017343;28;20267;-86
2022/10/19 00:47:37;;;;;;;15.47;3.07;;;11.60;90.40;;;;;;5035216;28;20169;-87
2022/10/19 00:50:03;;;;;;;12.23;3.17;;;11.60;90.30;;;;;;5017241;28;20181;-86
2022/10/19 00:52:29;;;;;;;13.73;3.23;;;11.50;90.40;;;;;;5034617;28;20209;-87
2022/10/19 00:54:56;;;;;;;15.17;4.20;;;11.50;90.30;;;;;;5017025;28;20254;-87
2022/10/19 00:57:25;;;;;;;13.50;3.23;;;11.50;90.30;;;;;;5017199;28;20188;-87
2022/10/19 00:59:51;;;;;;;8.83;2.63;;;11.50;90.30;;;;;;5017055;28;20671;-87
2022/10/19 01:02:16;;;;;;;11.90;3.00;;;11.50;90.30;;;;;;5016780;28;20282;-87
2022/10/19 01:04:48;;;;;;;14.23;3.77;;;11.40;90.30;;;;;;5016505;28;20181;-87
2022/10/19 01:07:13;;;;;;;10.50;2.67;;;11.50;90.30;;;;;;5016862;28;20177;-86
2022/10/19 01:09:39;;;;;;;12.83;3.00;;;11.40;90.20;;;;;;5017093;28;20188;-86
2022/10/19 01:12:16;;;;;;;18.93;3.90;;;11.50;90.10;;;;;;5034618;28;20201;-86
2022/10/19 01:14:57;;;;;;;10.23;3.13;;;11.50;90.00;;;;;;5016810;28;20590;-87
2022/10/19 01:17:44;;;;;;;12.10;2.67;;;11.60;89.90;;;;;;5017547;28;20198;-87
2022/10/19 01:20:37;;;;;;;12.07;2.70;;;11.60;89.70;;;;;;5016635;28;20181;-87
2022/10/19 01:23:34;;;;;;;13.70;3.17;;;11.60;89.60;;;;;;5016583;28;20187;-87
2022/10/19 01:26:24;;;;;;;26.87;3.30;;;11.50;89.30;;;;;;5016500;28;20551;-87
2022/10/19 01:29:17;;;;;;;8.97;2.93;;;11.50;89.20;;;;;;5016482;28;20184;-87
2022/10/19 01:32:05;;;;;;;16.37;3.07;;;11.50;89.20;;;;;;5016314;28;20204;-87
2022/10/19 01:34:33;;;;;;;9.47;2.57;;;11.60;89.10;;;;;;5016459;28;20173;-87
2022/10/19 01:37:01;;;;;;;7.43;2.50;;;11.60;89.10;;;;;;5016299;28;20177;-87
2022/10/19 01:39:42;;;;;;;10.87;2.90;;;11.70;89.00;;;;;;5016298;28;20599;-87
2022/10/19 01:42:20;;;;;;;10.93;2.73;;;11.60;88.70;;;;;;5016230;28;20204;-87
2022/10/19 01:45:03;;;;;;;17.03;2.93;;;11.60;88.30;;;;;;5016250;28;20580;-88
2022/10/19 01:47:35;;;;;;;17.30;2.90;;;11.60;88.10;;;;;;5016731;28;20223;-87
2022/10/19 01:50:14;;;;;;;17.30;3.20;;;11.50;87.40;;;;;;5016412;28;20184;-87
2022/10/19 01:52:41;;;;;;;18.60;3.20;;;11.60;87.10;;;;;;5016896;28;20193;-87
2022/10/19 01:55:10;;;;;;;9.07;2.20;;;11.60;86.80;;;;;;5016019;28;20176;-87
2022/10/19 01:57:41;;;;;;;13.43;2.97;;;11.60;86.70;;;;;;5015952;28;20177;-86
2022/10/19 02:00:10;;;;;;;24.10;3.47;;;11.50;85.70;;;;;;5033729;28;20188;-87
2022/10/19 02:02:39;;;;;;;15.83;2.77;;;11.50;85.50;;;;;;5015716;28;20220;-87
2022/10/19 02:05:05;;;;;;;12.60;3.23;;;11.50;85.10;;;;;;5033779;28;20176;-87
2022/10/19 02:07:32;;;;;;;15.27;2.60;;;11.40;84.60;;;;;;5033634;28;20172;-87
2022/10/19 02:09:58;;;;;;;12.47;2.47;;;11.40;84.20;;;;;;5016772;28;20202;-87
2022/10/19 02:12:25;;;;;;;13.03;2.83;;;11.30;83.80;;;;;;5033359;28;20862;-87
2022/10/19 02:14:55;;;;;;;12.43;2.27;;;11.30;83.90;;;;;;5033363;28;20176;-87
2022/10/19 02:17:26;;;;;;;9.87;2.47;;;11.30;83.60;;;;;;5014922;28;20188;-87
2022/10/19 02:19:53;;;;;;;10.67;2.20;;;11.30;83.60;;;;;;5015645;28;20242;-87
2022/10/19 02:22:19;;;;;;;11.17;2.73;;;11.20;83.60;;;;;;5033211;28;20211;-87
2022/10/19 02:24:45;;;;;;;10.87;2.13;;;11.20;83.00;;;;;;5015585;28;20671;-87
2022/10/19 02:27:11;;;;;;;7.57;2.00;;;11.20;83.10;;;;;;5015625;28;20180;-87
2022/10/19 02:29:38;;;;;;;13.57;2.10;;;11.10;83.20;;;;;;5015934;28;20235;-87
2022/10/19 02:32:04;;;;;;;11.50;2.30;;;11.00;83.30;;;;;;5015616;28;20204;-87
2022/10/19 02:34:31;;;;;;;12.43;2.57;;;11.10;83.40;;;;;;5033143;28;20176;-87
2022/10/19 02:36:56;;;;;;;12.77;2.20;;;11.20;83.00;;;;;;5015425;28;20184;-87
2022/10/19 02:39:22;;;;;;;9.83;2.93;;;11.20;82.80;;;;;;5033132;28;20180;-87
2022/10/19 02:42:13;;;;;;;8.57;2.03;;;11.20;82.60;;;;;;5015310;28;20231;-87
2022/10/19 02:44:55;;;;;;;12.20;2.30;;;11.20;82.60;;;;;;5015499;28;20168;-86
2022/10/19 02:47:29;;;;;;;9.03;2.20;;;11.20;82.20;;;;;;5015503;28;20176;-87
2022/10/19 02:49:55;;;;;;;10.17;2.03;;;11.30;82.30;;;;;;5015326;28;20663;-87
2022/10/19 02:52:20;;;;;;;11.87;2.43;;;11.20;82.20;;;;;;5015221;28;20203;-87
2022/10/19 02:54:46;;;;;;;11.10;2.67;;;11.30;82.20;;;;;;5015387;28;20172;-87
2022/10/19 02:57:20;;;;;;;13.03;2.07;;;11.20;82.10;;;;;;5015378;28;20222;-87
2022/10/19 02:59:46;;;;;;;7.27;1.60;;;11.20;82.00;;;;;;5015395;28;20180;-87
2022/10/19 03:02:12;;;;;;;7.50;2.10;;;11.30;81.80;;;;;;5015115;28;20725;-87
2022/10/19 03:04:40;;;;;;;6.63;2.00;;;11.20;81.80;;;;;;5015300;28;20192;-87
2022/10/19 03:07:07;;;;;;;8.33;2.00;;;11.30;81.70;;;;;;5015635;28;20188;-87
2022/10/19 03:09:32;;;;;;;12.57;2.33;;;11.30;81.60;;;;;;5015156;28;20612;-87
2022/10/19 03:11:58;;;;;;;12.93;2.33;;;11.30;81.70;;;;;;5014990;28;20311;-86
2022/10/19 03:14:23;;;;;;;8.90;2.00;;;11.30;81.80;;;;;;5032881;28;20169;-87
2022/10/19 03:16:49;;;;;;;7.57;1.90;;;11.30;82.00;;;;;;5015113;28;20267;-87
2022/10/19 03:19:14;;;;;;;7.80;1.90;;;11.30;81.70;;;;;;5015164;28;20263;-87
2022/10/19 03:21:40;;;;;;;8.33;1.90;;;11.30;81.50;;;;;;5032968;28;20697;-87
2022/10/19 03:24:05;;;;;;;6.73;1.63;;;11.30;81.70;;;;;;5032712;28;20734;-87
2022/10/19 03:26:31;;;;;;;4.97;1.50;;;11.30;81.80;;;;;;5015164;28;20169;-87
2022/10/19 03:28:56;;;;;;;17.43;1.87;;;11.30;81.90;;;;;;5017109;28;20548;-87
2022/10/19 03:31:22;;;;;;;15.73;2.27;;;11.30;82.00;;;;;;5018587;28;20192;-87
2022/10/19 03:33:48;;;;;;;8.60;2.23;;;11.30;82.20;;;;;;5018913;28;20212;-86
2022/10/19 03:36:31;;;;;;;10.80;1.70;;;11.30;82.30;;;;;;5036318;28;20173;-87
2022/10/19 03:39:00;;;;;;;12.77;2.03;;;11.40;82.20;;;;;;5018542;28;20207;-87
2022/10/19 03:41:32;;;;;;;9.60;2.40;;;11.30;82.30;;;;;;5018315;28;20553;-87
2022/10/19 03:43:57;;;;;;;12.30;2.27;;;11.30;82.60;;;;;;5018634;28;20279;-87
2022/10/19 03:46:23;;;;;;;6.10;2.13;;;11.30;82.70;;;;;;5036138;28;20628;-87
2022/10/19 03:48:49;;;;;;;11.40;2.17;;;11.30;82.80;;;;;;5018709;28;20187;-87
2022/10/19 03:51:18;;;;;;;7.23;1.70;;;11.20;82.90;;;;;;5018336;28;20686;-86
2022/10/19 03:53:44;;;;;;;10.53;2.10;;;11.20;83.10;;;;;;5018177;28;20201;-87
2022/10/19 03:56:11;;;;;;;6.77;2.00;;;11.20;83.20;;;;;;5018271;28;20307;-86
2022/10/19 03:58:37;;;;;;;17.17;2.63;;;11.20;83.20;;;;;;5035837;28;20169;-87
2022/10/19 04:01:26;;;;;;;12.27;1.80;;;11.20;83.40;;;;;;5017996;28;20243;-86
2022/10/19 04:03:56;;;;;;;13.70;2.27;;;11.20;83.30;;;;;;5018146;28;20183;-87
2022/10/19 04:06:32;;;;;;;15.50;2.23;;;11.20;83.40;;;;;;5035689;28;20188;-86
2022/10/19 04:08:58;;;;;;;9.03;1.90;;;11.20;83.50;;;;;;5036048;28;20165;-87
2022/10/19 04:11:27;;;;;;;8.37;1.73;;;11.20;83.40;;;;;;5017934;28;20208;-87
2022/10/19 04:13:54;;;;;;;6.57;2.10;;;11.30;83.20;;;;;;5035565;28;20666;-87
2022/10/19 04:16:21;;;;;;;17.87;2.70;;;11.20;83.10;;;;;;5017818;28;20173;-87
2022/10/19 04:18:47;;;;;;;10.27;1.80;;;11.20;83.30;;;;;;5017826;28;20548;-87
2022/10/19 04:21:27;;;;;;;17.47;2.57;;;11.20;83.50;;;;;;5035441;28;20196;-87
2022/10/19 04:23:57;;;;;;;7.20;2.33;;;11.20;83.60;;;;;;5017824;28;20219;-87
2022/10/19 04:26:23;;;;;;;9.07;2.67;;;11.20;83.80;;;;;;5035472;28;20188;-87
2022/10/19 04:28:48;;;;;;;8.97;2.77;;;11.20;84.00;;;;;;5017646;28;20276;-87
2022/10/19 04:31:14;;;;;;;10.70;2.07;;;11.20;84.10;;;;;;5017589;28;20224;-86
2022/10/19 04:33:39;;;;;;;23.17;2.60;;;11.20;84.10;;;;;;5035119;28;20740;-86
2022/10/19 04:36:07;;;;;;;16.33;2.50;;;11.20;84.00;;;;;;5035423;28;20513;-87
2022/10/19 04:38:33;;;;;;;10.40;2.67;;;11.20;84.00;;;;;;5017459;28;20682;-87
2022/10/19 04:41:05;;;;;;;18.50;2.33;;;11.30;83.70;;;;;;5016568;28;20271;-87
2022/10/19 04:43:31;;;;;;;26.03;4.13;;;11.30;83.70;;;;;;5017333;28;20184;-87
2022/10/19 04:46:00;;;;;;;11.57;2.80;;;11.30;83.70;;;;;;5034968;28;20177;-87
2022/10/19 04:48:26;;;;;;;11.73;2.60;;;11.30;83.40;;;;;;5017203;28;20183;-87
2022/10/19 04:50:53;;;;;;;9.83;2.63;;;11.20;83.40;;;;;;5034838;28;20197;-87
2022/10/19 04:53:19;;;;;;;11.67;2.60;;;11.20;83.50;;;;;;5034785;28;20671;-87
2022/10/19 04:55:44;;;;;;;17.60;2.63;;;11.20;83.70;;;;;;5017010;28;20183;-87
2022/10/19 04:58:10;;;;;;;13.37;2.20;;;11.20;83.70;;;;;;5017072;28;20177;-87
2022/10/19 05:00:38;;;;;;;10.23;2.30;;;11.20;83.60;;;;;;5016946;28;20213;-87
2022/10/19 05:03:03;;;;;;;10.60;2.30;;;11.20;83.70;;;;;;5017119;28;20172;-87
2022/10/19 05:05:30;;;;;;;8.50;2.70;;;11.30;83.70;;;;;;5017125;28;20177;-87
2022/10/19 05:07:56;;;;;;;14.10;2.50;;;11.20;83.70;;;;;;5016984;28;20181;-87
2022/10/19 05:10:21;;;;;;;10.17;2.47;;;11.20;84.00;;;;;;5034661;28;20247;-87
2022/10/19 05:12:47;;;;;;;11.03;2.53;;;11.20;84.00;;;;;;5016908;28;20581;-87
2022/10/19 05:15:12;;;;;;;8.40;2.23;;;11.20;84.20;;;;;;5016864;28;20215;-87
2022/10/19 05:17:38;;;;;;;17.67;2.70;;;11.20;84.40;;;;;;5016883;28;20176;-87
2022/10/19 05:20:04;;;;;;;9.37;2.03;;;11.20;84.40;;;;;;5016795;28;20177;-87
2022/10/19 05:22:29;;;;;;;11.77;2.77;;;11.20;84.50;;;;;;5017090;28;20561;-87
2022/10/19 05:24:55;;;;;;;14.30;2.43;;;11.20;84.60;;;;;;5016660;28;20188;-87
2022/10/19 05:27:21;;;;;;;21.33;3.50;;;11.20;84.60;;;;;;5016518;28;20195;-87
2022/10/19 05:29:46;;;;;;;18.80;2.77;;;11.30;84.70;;;;;;5016471;28;20661;-87
2022/10/19 05:32:12;;;;;;;14.77;2.67;;;11.30;84.40;;;;;;5034052;28;20250;-87
2022/10/19 05:34:37;;;;;;;21.23;2.63;;;11.40;84.20;;;;;;5034158;28;20168;-87
2022/10/19 05:37:03;;;;;;;13.47;2.90;;;11.40;84.20;;;;;;5016383;28;20173;-86
2022/10/19 05:39:28;;;;;;;24.00;3.33;;;11.40;84.30;;;;;;5016654;28;20623;-87
2022/10/19 05:41:54;;;;;;;23.93;3.10;;;11.30;84.50;;;;;;5016295;28;20201;-86
2022/10/19 05:44:21;;;;;;;10.93;2.43;;;11.30;84.70;;;;;;5016311;28;20165;-87
2022/10/19 05:46:48;;;;;;;10.43;2.70;;;11.30;84.80;;;;;;5016351;28;20264;-86
2022/10/19 05:49:16;;;;;;;10.80;2.53;;;11.30;84.90;;;;;;5016311;28;20173;-87
2022/10/19 05:51:42;;;;;;;25.37;3.20;;;11.30;85.00;;;;;;5015941;28;20193;-86
2022/10/19 05:54:09;;;;;;;14.77;2.80;;;11.30;85.20;;;;;;5016028;28;20199;-87
2022/10/19 05:56:34;;;;;;;19.57;3.03;;;11.30;85.20;;;;;;5016014;28;20183;-87
2022/10/19 05:59:02;;;;;;;17.97;3.77;;;11.30;85.30;;;;;;5016012;28;20177;-87
2022/10/19 06:01:29;;;;;;;14.23;3.27;;;11.30;85.40;;;;;;5015718;28;20216;-87
2022/10/19 06:03:56;;;;;;;15.97;2.97;;;11.20;85.40;;;;;;5015989;28;20176;-87
2022/10/19 06:06:22;;;;;;;16.50;3.30;;;11.30;85.50;;;;;;5016171;28;20643;-87
2022/10/19 06:08:49;;;;;;;11.27;3.10;;;11.30;85.50;;;;;;5033525;28;20180;-87
2022/10/19 06:11:17;;;;;;;14.87;2.97;;;11.30;85.60;;;;;;5033411;28;20193;-87
2022/10/19 06:13:44;;;;;;;15.37;3.10;;;11.30;85.60;;;;;;5033612;28;20196;-87
2022/10/19 06:16:12;;;;;;;21.13;4.93;;;11.40;85.70;;;;;;5015812;28;20177;-87
2022/10/19 06:18:38;;;;;;;9.90;2.50;;;11.30;85.90;;;;;;5033265;28;20252;-87
2022/10/19 06:21:06;;;;;;;17.07;3.20;;;11.30;86.30;;;;;;5016014;28;20243;-87
2022/10/19 06:23:33;;;;;;;16.83;3.10;;;11.30;86.60;;;;;;5016437;28;20211;-87
2022/10/19 06:26:02;;;;;;;14.33;3.17;;;11.20;86.60;;;;;;5015591;28;20234;-87
2022/10/19 06:28:27;;;;;;;16.23;2.80;;;11.20;86.80;;;;;;5015514;28;20550;-86
2022/10/19 06:30:53;;;;;;;13.40;3.50;;;11.20;87.00;;;;;;5033238;28;20284;-86
2022/10/19 06:33:18;;;;;;;8.87;2.77;;;11.20;87.20;;;;;;5015849;28;20211;-87
2022/10/19 06:35:44;;;;;;;20.00;4.63;;;11.30;87.40;;;;;;5015615;28;20271;-87
2022/10/19 06:38:09;;;;;;;11.00;3.80;;;11.30;87.50;;;;;;5015501;28;20251;-87
2022/10/19 06:40:35;;;;;;;13.03;3.17;;;11.30;87.60;;;;;;5015487;28;20193;-86
2022/10/19 06:43:01;;;;;;;13.47;2.93;;;11.30;87.60;;;;;;5015512;28;20647;-86
2022/10/19 06:45:26;;;;;;;11.83;3.00;;;11.30;87.80;;;;;;5015446;28;20181;-86
2022/10/19 06:47:52;;;;;;;10.50;2.77;;;11.40;87.90;;;;;;5015369;28;20216;-86
2022/10/19 06:50:19;;;;;;;20.50;3.50;;;11.30;87.80;;;;;;5015335;28;20173;-86
2022/10/19 06:52:45;;;;;;;17.17;3.57;;;11.40;87.70;;;;;;5032934;28;20199;-86
2022/10/19 06:55:11;;;;;;;15.47;3.07;;;11.40;87.70;;;;;;5015281;28;20173;-86
2022/10/19 06:57:36;;;;;;;16.83;4.40;;;11.40;87.70;;;;;;5015597;28;20175;-87
2022/10/19 07:00:04;;;;;;;16.00;3.60;;;11.50;87.80;;;;;;5015430;28;20540;-87
2022/10/19 07:02:29;;;;;;;20.47;3.70;;;11.50;87.80;;;;;;5015350;28;20212;-87
2022/10/19 07:04:55;;;;;;;16.90;4.00;;;11.50;87.80;;;;;;5019306;28;20180;-87
2022/10/19 07:07:20;;;;;;;22.80;3.57;;;11.50;87.80;;;;;;5019581;28;20267;-87
2022/10/19 07:09:47;;;;;;;15.63;5.37;;;11.50;87.70;;;;;;5037541;28;20198;-87
2022/10/19 07:12:13;;;;;;;19.33;6.70;;;11.50;87.50;;;;;;5019539;28;20211;-87
2022/10/19 07:14:39;;;;;;;14.23;5.50;;;11.50;87.40;;;;;;5020175;28;20176;-87
2022/10/19 07:17:10;;;;;;;18.23;5.47;;;11.60;87.40;;;;;;5020002;28;20647;-87
2022/10/19 07:19:35;;;;;;;18.40;5.80;;;11.50;87.30;;;;;;5019703;28;20604;-87
2022/10/19 07:22:01;;;;;;;27.87;13.33;;;11.50;87.20;;;;;;5037185;28;20193;-87
2022/10/19 07:24:26;;;;;;;24.73;10.13;;;11.50;87.10;;;;;;5037182;28;20256;-87
2022/10/19 07:26:52;;;;;;;26.73;10.60;;;11.50;87.00;;;;;;5037220;28;20173;-87
2022/10/19 07:29:17;;;;;;;33.57;13.50;;;11.50;86.80;;;;;;5019466;28;20719;-87
2022/10/19 07:31:43;;;;;;;21.43;7.57;;;11.50;86.70;;;;;;5019413;28;20222;-87
2022/10/19 07:34:11;;;;;;;19.27;5.80;;;11.50;86.60;;;;;;5019275;28;20574;-87
2022/10/19 07:36:36;;;;;;;23.50;4.40;;;11.50;86.60;;;;;;5019594;28;20254;-87
2022/10/19 07:39:05;;;;;;;22.20;4.27;;;11.50;86.50;;;;;;5019140;28;20627;-87
2022/10/19 07:41:31;;;;;;;17.30;3.83;;;11.50;86.50;;;;;;5018857;28;20196;-87
2022/10/19 07:43:57;;;;;;;15.43;4.30;;;11.60;86.60;;;;;;5018996;28;20268;-87
2022/10/19 07:46:26;;;;;;;19.73;4.37;;;11.60;86.40;;;;;;5036661;28;20208;-87
2022/10/19 07:48:52;;;;;;;14.57;4.07;;;11.60;86.40;;;;;;5018802;28;20611;-87
2022/10/19 07:51:18;;;;;;;23.93;3.80;;;11.70;86.40;;;;;;5018711;28;20200;-87
2022/10/19 07:53:44;;;;;;;21.50;3.47;;;11.70;86.50;;;;;;5036274;28;20197;-87
2022/10/19 07:56:18;;;;;;;16.00;3.30;;;11.70;86.40;;;;;;5018445;28;20184;-87
2022/10/19 07:58:44;;;;;;;25.70;4.10;;;11.70;86.40;;;;;;5018251;28;20676;-87
2022/10/19 08:01:12;;;;;;;18.10;3.80;;;11.70;86.50;;;;;;5018365;28;20212;-87
2022/10/19 08:03:38;;;;;;;15.80;4.27;;;11.70;86.50;;;;;;5018268;28;20187;-87
2022/10/19 08:06:06;;;;;;;12.90;3.50;;;11.80;86.50;;;;;;5018342;28;20190;-87
2022/10/19 08:08:33;;;;;;;24.13;3.93;;;12.00;86.30;;;;;;5018184;28;20177;-87
2022/10/19 08:11:09;;;;;;;16.97;4.27;;;12.10;86.20;;;;;;5035850;28;20204;-87
2022/10/19 08:13:35;;;;;;;19.20;4.47;;;12.10;86.00;;;;;;5018129;28;20195;-87
2022/10/19 08:16:01;;;;;;;19.07;3.60;;;12.00;85.90;;;;;;5016876;28;20587;-87
2022/10/19 08:18:27;;;;;;;18.10;3.57;;;12.10;85.50;;;;;;5036672;28;20311;-87
2022/10/19 08:20:52;;;;;;;16.10;2.97;;;12.20;85.50;;;;;;5018244;28;20224;-88
2022/10/19 08:23:18;;;;;;;10.70;2.47;;;12.30;85.60;;;;;;5018866;28;20275;-86
2022/10/19 08:25:43;;;;;;;13.03;2.43;;;12.40;85.20;;;;;;5019027;28;20188;-86
2022/10/19 08:28:09;;;;;;;12.40;2.50;;;12.30;82.50;;;;;;5019425;28;20169;-86
2022/10/19 08:30:35;;;;;;;7.93;2.17;;;12.40;82.30;;;;;;5019657;28;20208;-87
2022/10/19 08:33:03;;;;;;;11.63;2.50;;;12.50;82.20;;;;;;5036211;28;20279;-87
2022/10/19 08:35:30;;;;;;;9.80;2.70;;;12.60;81.90;;;;;;5018455;28;20169;-87
2022/10/19 08:37:56;;;;;;;14.43;1.83;;;12.60;80.00;;;;;;5036039;28;20193;-87
2022/10/19 08:40:29;;;;;;;15.40;2.97;;;12.60;80.00;;;;;;5017960;28;20168;-87
2022/10/19 08:43:17;;;;;;;12.90;2.80;;;12.60;80.50;;;;;;5018706;28;20547;-87
2022/10/19 08:45:53;;;;;;;10.70;2.47;;;12.70;81.30;;;;;;5021889;28;20172;-86
2022/10/19 08:48:31;;;;;;;11.47;1.80;;;12.80;81.40;;;;;;5036310;28;20214;-86
2022/10/19 08:50:59;;;;;;;8.47;2.00;;;12.70;80.10;;;;;;5018136;28;20201;-87
2022/10/19 08:53:51;;;;;;;10.40;2.73;;;12.70;79.80;;;;;;5017564;28;20220;-87
2022/10/19 08:56:24;;;;;;;12.50;2.67;;;12.80;80.30;;;;;;5036110;28;20168;-88
2022/10/19 08:59:11;;;;;;;12.07;2.47;;;12.80;80.90;;;;;;5018337;28;20176;-87
2022/10/19 09:01:55;;;;;;;6.70;2.17;;;12.80;80.60;;;;;;5035715;28;20275;-87
2022/10/19 09:04:34;;;;;;;11.80;2.70;;;12.90;79.90;;;;;;5017865;28;20165;-86
2022/10/19 09:07:08;;;;;;;10.80;2.80;;;13.00;79.00;;;;;;5018308;28;20165;-87
2022/10/19 09:09:45;;;;;;;10.47;3.10;;;13.00;78.50;;;;;;5017656;28;20176;-86
2022/10/19 09:12:16;;;;;;;7.27;1.80;;;13.00;78.10;;;;;;5017835;28;20290;-87
2022/10/19 09:15:04;;;;;;;12.50;2.13;;;13.00;78.20;;;;;;5018494;28;20169;-86
2022/10/19 09:17:31;;;;;;;13.33;2.57;;;13.10;77.90;;;;;;5018418;28;20228;-86
2022/10/19 09:20:11;;;;;;;13.80;2.33;;;13.10;78.50;;;;;;5038519;28;20635;-86
2022/10/19 09:22:37;;;;;;;12.93;2.33;;;13.00;79.20;;;;;;5041635;28;20199;-86
2022/10/19 09:25:32;;;;;;;9.30;1.90;;;13.00;78.50;;;;;;5023365;28;20200;-86
2022/10/19 09:28:42;;;;;;;9.07;2.70;;;13.00;77.80;;;;;;5021202;28;20651;-86
2022/10/19 09:31:23;;;;;;;8.13;2.07;;;13.10;77.70;;;;;;4999448;28;20201;-87
2022/10/19 09:33:54;;;;;;;8.23;1.93;;;13.10;76.70;;;;;;5019006;28;20670;-87
2022/10/19 09:36:22;;;;;;;7.47;1.97;;;13.00;76.90;;;;;;5037256;28;20204;-87
2022/10/19 09:38:48;;;;;;;6.33;1.93;;;12.90;76.90;;;;;;5018459;28;20177;-86
2022/10/19 09:41:20;;;;;;;10.70;2.07;;;13.00;77.30;;;;;;5035548;28;20251;-87
2022/10/19 09:43:52;;;;;;;10.40;2.40;;;13.00;77.80;;;;;;5017889;28;20187;-87
2022/10/19 09:46:33;;;;;;;11.73;2.10;;;13.20;78.10;;;;;;5035740;28;20157;-87
2022/10/19 09:49:01;;;;;;;5.10;1.73;;;13.10;76.50;;;;;;5018417;28;20173;-87
2022/10/19 09:51:39;;;;;;;15.43;2.30;;;13.20;77.40;;;;;;5017922;28;20247;-86
2022/10/19 09:54:05;;;;;;;9.47;2.20;;;13.10;77.10;;;;;;5017659;28;20193;-87
2022/10/19 09:56:36;;;;;;;7.97;2.03;;;13.10;76.50;;;;;;5017276;28;20180;-86
2022/10/19 09:59:02;;;;;;;5.50;1.80;;;13.20;77.10;;;;;;5035237;28;20237;-87
2022/10/19 10:01:34;;;;;;;11.20;2.43;;;13.20;76.10;;;;;;5016627;28;20635;-87
2022/10/19 10:04:12;;;;;;;8.07;2.03;;;13.10;76.40;;;;;;5035113;28;20176;-87
2022/10/19 10:06:39;;;;;;;11.27;2.07;;;13.30;77.20;;;;;;5016776;28;20173;-86
2022/10/19 10:09:05;;;;;;;12.50;2.20;;;13.30;77.60;;;;;;5016617;28;20276;-86
2022/10/19 10:11:37;;;;;;;7.93;2.27;;;13.30;78.20;;;;;;5016735;28;20279;-86
2022/10/19 10:14:38;;;;;;;8.17;1.83;;;13.40;77.50;;;;;;5034434;28;20196;-86
2022/10/19 10:17:11;;;;;;;8.77;1.73;;;13.50;76.60;;;;;;5017122;28;20175;-86
2022/10/19 10:19:56;;;;;;;9.50;2.10;;;13.50;75.90;;;;;;5016810;28;20218;-86
2022/10/19 10:22:26;;;;;;;6.97;2.30;;;13.70;76.00;;;;;;5018527;28;20351;-86
2022/10/19 10:24:55;;;;;;;8.27;1.70;;;14.00;76.00;;;;;;5037015;28;20177;-87
2022/10/19 10:27:30;;;;;;;9.07;2.20;;;14.20;75.60;;;;;;5016371;28;20668;-87
2022/10/19 10:29:56;;;;;;;7.13;1.60;;;14.30;75.40;;;;;;5034408;28;20635;-87
2022/10/19 10:32:22;;;;;;;7.57;2.13;;;14.30;75.10;;;;;;5016846;28;20196;-87
2022/10/19 10:35:15;;;;;;;14.53;2.20;;;14.30;74.90;;;;;;5016188;28;20176;-87
2022/10/19 10:37:44;;;;;;;11.27;2.10;;;14.30;74.10;;;;;;5015588;28;20647;-87
2022/10/19 10:40:30;;;;;;;10.57;2.03;;;14.10;73.40;;;;;;5033643;28;20716;-87
2022/10/19 10:43:07;;;;;;;9.33;1.80;;;14.10;75.00;;;;;;5034441;28;20188;-87
2022/10/19 10:45:45;;;;;;;7.03;1.67;;;13.90;75.00;;;;;;5016634;28;20173;-87
2022/10/19 10:48:55;;;;;;;8.30;2.03;;;13.90;75.30;;;;;;5016042;28;20190;-87
2022/10/19 10:51:32;;;;;;;11.37;2.13;;;14.00;75.30;;;;;;4937538;29;20203;-87
2022/10/19 10:54:26;;;;;;;11.17;1.60;;;14.00;75.50;;;;;;4937183;29;20282;-87
2022/10/19 10:57:14;;;;;;;8.93;2.20;;;14.10;74.40;;;;;;4998924;28;20637;-87
2022/10/19 11:00:10;;;;;;;5.80;2.13;;;14.00;73.30;;;;;;5033733;28;20176;-87
2022/10/19 11:03:09;;;;;;;4.53;1.73;;;14.30;72.60;;;;;;5016360;28;20740;-87
2022/10/19 11:05:44;;;;;;;4.40;1.80;;;14.30;72.80;;;;;;5017359;28;20176;-87
2022/10/19 11:08:34;;;;;;;7.67;2.17;;;14.40;72.70;;;;;;5016063;28;20169;-87
2022/10/19 11:11:09;;;;;;;7.60;1.80;;;14.40;72.60;;;;;;5015834;28;20623;-88
2022/10/19 11:13:59;;;;;;;10.17;2.43;;;14.50;72.80;;;;;;5033598;28;20526;-87
2022/10/19 11:16:34;;;;;;;5.10;1.77;;;14.50;71.90;;;;;;5016707;28;20176;-87
2022/10/19 11:19:31;;;;;;;7.20;2.00;;;14.60;71.80;;;;;;5015516;28;20218;-87
2022/10/19 11:22:01;;;;;;;5.60;2.00;;;14.70;71.00;;;;;;5015362;28;20202;-87
2022/10/19 11:24:51;;;;;;;9.33;2.00;;;14.80;71.60;;;;;;5015947;28;20165;-87
2022/10/19 11:27:31;;;;;;;7.60;1.93;;;14.80;71.10;;;;;;5017827;28;20172;-86
2022/10/19 11:30:08;;;;;;;11.40;2.22;;;14.80;72.00;;;;;;5034418;28;20156;-86
2022/10/19 11:32:56;;;;;;;11.90;2.20;;;14.40;72.80;;;;;;5015902;28;20207;-89
2022/10/19 11:35:33;;;;;;;14.20;2.87;;;14.20;74.20;;;;;;5033021;28;20250;-88
2022/10/19 11:38:26;;;;;;;11.67;2.57;;;13.90;74.50;;;;;;5016091;28;20165;-89
2022/10/19 11:41:25;;;;;;;9.30;1.70;;;13.80;74.70;;;;;;5015575;28;20193;-89
2022/10/19 11:44:02;;;;;;;10.13;1.77;;;14.10;75.10;;;;;;5015343;28;20272;-89
2022/10/19 11:47:02;;;;;;;12.03;2.07;;;14.10;74.90;;;;;;5015410;28;20271;-89
2022/10/19 11:49:54;;;;;;;9.40;2.50;;;14.00;75.90;;;;;;5017826;28;20192;-89
2022/10/19 11:52:33;;;;;;;5.77;1.70;;;13.80;74.30;;;;;;5036487;28;20204;-88
2022/10/19 11:55:18;;;;;;;10.10;2.40;;;13.70;73.60;;;;;;5036334;28;20161;-89
2022/10/19 11:58:07;;;;;;;9.67;2.00;;;13.70;73.20;;;;;;5018601;28;20173;-89
2022/10/19 12:00:54;;;;;;;10.70;2.30;;;13.80;74.00;;;;;;5036252;28;20247;-88
2022/10/19 12:03:49;;;;;;;9.10;2.00;;;13.80;74.80;;;;;;5019490;28;20184;-88
2022/10/19 12:06:21;;;;;;;9.50;2.30;;;14.00;73.30;;;;;;5018615;28;20178;-89
2022/10/19 12:08:54;;;;;;;14.00;3.13;;;14.30;71.50;;;;;;5018908;28;20215;-89
2022/10/19 12:11:26;;;;;;;4.93;1.60;;;14.40;71.20;;;;;;5019311;28;20330;-89
2022/10/19 12:14:02;;;;;;;6.60;1.87;;;14.40;71.70;;;;;;5036096;28;20183;-88
2022/10/19 12:16:37;;;;;;;5.95;1.85;;;14.40;70.90;;;;;;5018143;28;20190;-88
2022/10/19 12:19:04;;;;;;;6.23;1.93;;;14.20;71.30;;;;;;5018076;28;20718;-89
2022/10/19 12:21:37;;;;;;;13.10;2.10;;;14.40;71.30;;;;;;5017955;28;20537;-89
2022/10/19 12:24:22;;;;;;;9.37;1.37;;;14.60;71.30;;;;;;5017991;28;20513;-89
2022/10/19 12:26:49;;;;;;;6.23;1.93;;;14.70;71.00;;;;;;5018254;28;20234;-89
2022/10/19 12:29:22;;;;;;;8.90;1.77;;;14.70;69.10;;;;;;5017968;28;20177;-89
2022/10/19 12:31:49;;;;;;;12.43;1.80;;;14.80;69.30;;;;;;5018190;28;20200;-89
2022/10/19 12:34:36;;;;;;;6.57;1.88;;;15.00;69.70;;;;;;5017818;28;20254;-89
2022/10/19 12:37:10;;;;;;;4.63;1.65;;;15.10;70.50;;;;;;5018433;28;20169;-89
2022/10/19 12:39:56;;;;;;;8.10;1.70;;;15.00;69.40;;;;;;5018433;28;20176;-88
2022/10/19 12:42:33;;;;;;;3.73;1.57;;;14.70;70.70;;;;;;5017607;28;20693;-89
2022/10/19 12:45:29;;;;;;;8.07;1.60;;;14.20;70.90;;;;;;5017721;28;20542;-88
2022/10/19 12:48:06;;;;;;;10.83;1.90;;;14.00;71.80;;;;;;5017695;28;20250;-89
2022/10/19 12:50:57;;;;;;;6.67;1.80;;;13.90;72.70;;;;;;5017569;28;20643;-89
2022/10/19 12:53:24;;;;;;;10.57;1.90;;;14.00;73.40;;;;;;5017832;28;20192;-88
2022/10/19 12:56:06;;;;;;;4.63;1.43;;;14.20;73.00;;;;;;5017554;28;20169;-89
2022/10/19 12:58:38;;;;;;;3.63;1.30;;;14.30;70.60;;;;;;5018540;28;20157;-89
2022/10/19 13:01:05;;;;;;;8.63;1.70;;;14.40;69.80;;;;;;5016657;28;20211;-88
2022/10/19 13:03:39;;;;;;;4.30;1.40;;;14.30;68.40;;;;;;5017703;28;20207;-88